createdAt,value
2022-12-03T00:00:13.912Z,11.53
2022-12-03T00:03:22.291Z,12.57
2022-12-03T00:06:34.647Z,11.00
2022-12-03T00:09:43.225Z,12.27
2022-12-03T00:12:51.549Z,11.07
2022-12-03T00:16:00.559Z,11.07
2022-12-03T00:19:08.924Z,11.50
2022-12-03T00:22:18.511Z,10.70
2022-12-03T00:25:26.808Z,10.70
2022-12-03T00:28:35.085Z,10.60
2022-12-03T00:31:45.478Z,11.37
2022-12-03T00:34:54.340Z,10.63
2022-12-03T00:38:04.243Z,10.77
2022-12-03T00:41:13.122Z,10.00
2022-12-03T00:44:21.543Z,10.73
2022-12-03T00:47:29.853Z,9.87
2022-12-03T00:50:38.160Z,12.10
2022-12-03T00:53:47.798Z,10.50
2022-12-03T00:56:56.031Z,9.97
2022-12-03T01:00:07.570Z,10.10
2022-12-03T01:03:15.821Z,10.33
2022-12-03T01:06:24.031Z,11.83
2022-12-03T01:09:33.721Z,10.80
2022-12-03T01:12:42.399Z,10.00
2022-12-03T01:15:51.262Z,10.27
2022-12-03T01:18:59.729Z,9.83
2022-12-03T01:22:08.735Z,10.33
2022-12-03T01:25:19.140Z,9.93
2022-12-03T01:28:29.320Z,9.60
2022-12-03T01:31:58.186Z,10.33
2022-12-03T01:35:07.499Z,10.37
2022-12-03T01:38:20.101Z,9.00
2022-12-03T01:41:34.286Z,10.00
2022-12-03T01:44:43.412Z,10.00
2022-12-03T01:47:52.136Z,9.87
2022-12-03T01:51:01.319Z,9.83
2022-12-03T01:54:19.219Z,9.50
2022-12-03T01:57:35.973Z,10.73
2022-12-03T02:00:44.285Z,10.63
2022-12-03T02:03:52.753Z,9.67
2022-12-03T02:07:21.138Z,10.17
2022-12-03T02:10:34.725Z,10.80
2022-12-03T02:13:45.864Z,9.87
2022-12-03T02:16:54.405Z,9.93
2022-12-03T02:20:05.605Z,10.20
2022-12-03T02:23:27.190Z,9.87
2022-12-03T02:26:37.197Z,10.17
2022-12-03T02:29:45.590Z,10.13
2022-12-03T02:32:55.122Z,10.03
2022-12-03T02:36:04.277Z,9.43
2022-12-03T02:39:12.632Z,10.90
2022-12-03T02:42:38.811Z,10.77
2022-12-03T02:45:51.285Z,10.53
2022-12-03T02:49:02.110Z,10.10
2022-12-03T02:52:10.490Z,11.10
2022-12-03T02:55:20.208Z,10.00
2022-12-03T02:58:33.455Z,9.93
2022-12-03T03:01:42.100Z,10.33
2022-12-03T03:04:51.315Z,8.87
2022-12-03T03:08:02.657Z,9.87
2022-12-03T03:11:11.243Z,8.73
2022-12-03T03:14:21.205Z,10.27
2022-12-03T03:17:29.492Z,10.63
2022-12-03T03:20:38.541Z,9.50
2022-12-03T03:23:46.858Z,9.07
2022-12-03T03:26:58.889Z,10.13
2022-12-03T03:30:11.541Z,9.03
2022-12-03T03:33:20.210Z,9.07
2022-12-03T03:36:28.529Z,8.57
2022-12-03T03:39:37.052Z,9.53
2022-12-03T03:42:45.539Z,9.23
2022-12-03T03:45:56.641Z,9.30
2022-12-03T03:49:06.772Z,10.07
2022-12-03T03:52:15.233Z,9.93
2022-12-03T03:55:23.896Z,9.03
2022-12-03T03:58:32.311Z,9.30
2022-12-03T04:01:42.736Z,8.57
2022-12-03T04:04:52.430Z,8.27
2022-12-03T04:08:01.134Z,8.50
2022-12-03T04:15:57.004Z,9.13
2022-12-03T04:19:06.742Z,8.53
2022-12-03T04:22:33.119Z,9.00
2022-12-03T04:25:58.735Z,8.80
2022-12-03T04:29:07.145Z,9.10
2022-12-03T04:32:33.397Z,8.80
2022-12-03T04:35:45.812Z,7.77
2022-12-03T04:38:54.366Z,9.37
2022-12-03T04:42:03.418Z,9.90
2022-12-03T04:45:12.638Z,9.47
2022-12-03T04:48:20.863Z,9.73
2022-12-03T04:51:30.403Z,8.60
2022-12-03T04:54:39.594Z,9.27
2022-12-03T04:57:47.728Z,9.37
2022-12-03T05:00:55.991Z,8.80
2022-12-03T05:04:04.804Z,9.30
2022-12-03T05:07:14.352Z,10.00
2022-12-03T05:10:22.636Z,8.93
2022-12-03T05:13:30.914Z,8.73
2022-12-03T05:16:39.870Z,9.17
2022-12-03T05:20:05.821Z,9.40
2022-12-03T05:23:16.019Z,8.73
2022-12-03T05:26:24.357Z,9.70
2022-12-03T05:29:32.509Z,10.23
2022-12-03T05:32:40.701Z,10.17
2022-12-03T05:35:49.548Z,9.70
2022-12-03T05:38:59.163Z,10.80
2022-12-03T05:42:24.892Z,10.23
2022-12-03T05:45:36.183Z,10.57
2022-12-03T05:48:44.544Z,9.60
2022-12-03T05:51:58.442Z,11.17
2022-12-03T05:55:11.095Z,10.10
2022-12-03T05:58:19.235Z,9.87
2022-12-03T06:01:27.508Z,10.63
2022-12-03T06:04:36.361Z,9.77
2022-12-03T06:07:44.662Z,10.20
2022-12-03T06:10:54.362Z,9.93
2022-12-03T06:14:02.638Z,11.03
2022-12-03T06:17:11.874Z,10.87
2022-12-03T06:20:22.122Z,11.33
2022-12-03T06:23:30.422Z,10.57
2022-12-03T06:26:39.965Z,10.33
2022-12-03T06:29:48.520Z,10.37
2022-12-03T06:32:56.773Z,10.83
2022-12-03T06:36:05.475Z,10.63
2022-12-03T06:39:14.252Z,10.90
2022-12-03T06:42:23.901Z,10.67
2022-12-03T06:45:32.108Z,10.10
2022-12-03T06:48:40.538Z,11.23
2022-12-03T06:51:49.073Z,10.13
2022-12-03T06:54:57.503Z,10.20
2022-12-03T06:58:07.298Z,10.23
2022-12-03T07:01:16.336Z,9.97
2022-12-03T07:04:24.553Z,9.53
2022-12-03T07:07:33.284Z,10.03
2022-12-03T07:10:41.627Z,9.67
2022-12-03T07:13:51.212Z,9.93
2022-12-03T07:16:59.470Z,9.80
2022-12-03T07:20:09.801Z,10.10
2022-12-03T07:23:18.034Z,9.90
2022-12-03T07:26:26.633Z,10.07
2022-12-03T07:29:36.572Z,9.60
2022-12-03T07:32:44.878Z,8.40
2022-12-03T07:35:53.597Z,9.00
2022-12-03T07:39:01.770Z,9.37
2022-12-03T07:42:10.335Z,8.77
2022-12-03T07:45:20.178Z,9.37
2022-12-03T07:48:28.449Z,8.90
2022-12-03T07:51:36.814Z,9.63
2022-12-03T07:54:45.673Z,8.90
2022-12-03T07:57:54.084Z,9.27
2022-12-03T08:01:03.985Z,8.87
2022-12-03T08:04:13.004Z,8.93
2022-12-03T08:07:21.226Z,9.53
2022-12-03T08:10:29.676Z,9.20
2022-12-03T08:13:38.013Z,10.93
2022-12-03T08:16:49.265Z,9.43
2022-12-03T08:19:57.992Z,9.17
2022-12-03T08:23:15.298Z,8.60
2022-12-03T08:26:26.364Z,8.17
2022-12-03T08:29:34.707Z,8.53
2022-12-03T08:32:45.244Z,9.40
2022-12-03T08:35:54.328Z,9.17
2022-12-03T08:39:23.155Z,8.77
2022-12-03T08:42:43.948Z,8.67
2022-12-03T08:45:54.000Z,8.37
2022-12-03T08:49:03.813Z,9.67
2022-12-03T08:52:17.889Z,9.80
2022-12-03T08:55:36.531Z,8.67
2022-12-03T08:58:48.112Z,8.83
2022-12-03T09:01:57.532Z,8.93
2022-12-03T09:05:20.077Z,7.97
2022-12-03T09:08:28.458Z,9.17
2022-12-03T09:11:36.786Z,8.57
2022-12-03T09:14:45.045Z,8.93
2022-12-03T09:17:53.381Z,8.87
2022-12-03T09:21:03.074Z,9.00
2022-12-03T09:24:11.533Z,10.17
2022-12-03T09:27:20.791Z,8.77
2022-12-03T09:30:29.098Z,9.70
2022-12-03T09:33:37.690Z,9.10
2022-12-03T09:36:47.392Z,10.37
2022-12-03T09:39:56.837Z,8.70
2022-12-03T09:43:05.840Z,11.10
2022-12-03T09:46:14.592Z,10.37
2022-12-03T09:49:22.876Z,9.50
2022-12-03T09:52:35.488Z,9.47
2022-12-03T09:55:46.513Z,11.17
2022-12-03T09:59:00.241Z,11.00
2022-12-03T10:02:21.406Z,11.37
2022-12-03T10:05:31.169Z,11.03
2022-12-03T10:08:40.868Z,9.97
2022-12-03T10:11:49.303Z,8.90
2022-12-03T10:14:57.706Z,8.43
2022-12-03T10:18:19.427Z,8.57
2022-12-03T10:21:32.139Z,9.07
2022-12-03T10:24:41.806Z,9.60
2022-12-03T10:27:59.721Z,8.93
2022-12-03T10:31:11.604Z,9.07
2022-12-03T10:34:28.090Z,9.47
2022-12-03T10:37:36.352Z,9.03
2022-12-03T10:40:46.822Z,9.27
2022-12-03T10:43:55.365Z,9.23
2022-12-03T10:47:10.379Z,8.90
2022-12-03T10:50:21.343Z,9.70
2022-12-03T10:53:34.115Z,9.37
2022-12-03T10:56:44.769Z,9.10
2022-12-03T10:59:53.338Z,8.77
2022-12-03T11:03:01.818Z,7.80
2022-12-03T11:06:16.112Z,8.33
2022-12-03T11:09:31.467Z,8.50
2022-12-03T11:12:43.502Z,9.20
2022-12-03T11:15:53.258Z,8.93
2022-12-03T11:19:04.069Z,8.63
2022-12-03T11:22:41.238Z,8.83
2022-12-03T11:25:51.410Z,7.63
2022-12-03T11:29:01.433Z,8.57
2022-12-03T11:32:09.859Z,8.57
2022-12-03T11:35:28.906Z,8.63
2022-12-03T11:38:57.796Z,9.20
2022-12-03T11:42:38.385Z,10.27
2022-12-03T11:45:48.157Z,9.33
2022-12-03T11:49:00.877Z,10.20
2022-12-03T11:52:30.416Z,10.17
2022-12-03T11:55:44.269Z,10.23
2022-12-03T11:59:01.374Z,10.33
2022-12-03T12:02:22.316Z,9.90
2022-12-03T12:05:33.828Z,10.90
2022-12-03T12:08:57.290Z,10.30
2022-12-03T12:12:21.423Z,10.13
2022-12-03T12:15:51.129Z,9.83
2022-12-03T12:19:39.913Z,9.63
2022-12-03T12:22:48.183Z,10.37
2022-12-03T12:26:07.503Z,9.67
2022-12-03T12:29:15.735Z,9.80
2022-12-03T12:32:28.118Z,11.57
2022-12-03T12:35:37.983Z,10.13
2022-12-03T12:38:46.256Z,8.97
2022-12-03T12:41:55.737Z,11.07
2022-12-03T12:45:16.229Z,10.00
2022-12-03T12:48:28.744Z,8.73
2022-12-03T12:51:44.476Z,9.93
2022-12-03T12:54:52.713Z,9.27
2022-12-03T12:58:07.175Z,10.33
2022-12-03T13:01:23.339Z,10.37
2022-12-03T13:04:31.963Z,9.07
2022-12-03T13:07:44.164Z,10.40
2022-12-03T13:10:54.849Z,11.40
2022-12-03T13:14:11.842Z,10.30
2022-12-03T13:17:24.407Z,10.60
2022-12-03T13:20:32.826Z,9.87
2022-12-03T13:23:43.406Z,11.33
2022-12-03T13:26:51.650Z,12.20
2022-12-03T13:30:08.021Z,11.53
2022-12-03T13:33:26.281Z,12.43
2022-12-03T13:36:42.378Z,10.83
2022-12-03T13:39:56.671Z,12.43
2022-12-03T13:43:11.489Z,12.07
2022-12-03T13:46:19.877Z,12.07
2022-12-03T13:49:29.904Z,11.80
2022-12-03T13:52:38.339Z,11.23
2022-12-03T13:55:50.745Z,11.47
2022-12-03T13:59:01.960Z,12.77
2022-12-03T14:02:11.308Z,11.67
2022-12-03T14:05:19.607Z,11.20
2022-12-03T14:08:27.820Z,11.87
2022-12-03T14:11:55.209Z,11.07
2022-12-03T14:15:06.240Z,11.33
2022-12-03T14:18:14.628Z,10.80
2022-12-03T14:21:23.031Z,11.33
2022-12-03T14:24:32.122Z,11.00
2022-12-03T14:27:41.770Z,10.53
2022-12-03T14:30:49.970Z,10.57
2022-12-03T14:33:58.237Z,11.30
2022-12-03T14:37:06.696Z,12.07
2022-12-03T14:40:20.981Z,11.60
2022-12-03T14:43:32.295Z,10.77
2022-12-03T14:46:43.204Z,12.13
2022-12-03T14:49:52.981Z,11.70
2022-12-03T14:53:01.742Z,13.17
2022-12-03T14:56:10.213Z,11.83
2022-12-03T14:59:25.842Z,11.57
2022-12-03T15:02:36.828Z,11.87
2022-12-03T15:05:45.709Z,11.47
2022-12-03T15:08:54.644Z,10.63
2022-12-03T15:12:02.918Z,10.60
2022-12-03T15:15:13.851Z,10.00
2022-12-03T15:18:22.533Z,11.07
2022-12-03T15:21:32.755Z,10.70
2022-12-03T15:24:41.261Z,10.20
2022-12-03T15:27:49.496Z,11.33
2022-12-03T15:30:59.791Z,11.07
2022-12-03T15:34:08.657Z,10.00
2022-12-03T15:37:17.299Z,13.30
2022-12-03T15:40:25.812Z,11.70
2022-12-03T15:43:34.128Z,10.93
2022-12-03T15:46:44.033Z,11.73
2022-12-03T15:49:52.681Z,12.53
2022-12-03T15:53:01.497Z,11.63
2022-12-03T15:56:11.901Z,10.67
2022-12-03T15:59:20.268Z,11.87
2022-12-03T16:02:33.799Z,11.37
2022-12-03T16:05:42.223Z,12.23
2022-12-03T16:08:50.371Z,12.40
2022-12-03T16:11:58.635Z,11.37
2022-12-03T16:15:08.406Z,12.93
2022-12-03T16:18:18.773Z,11.77
2022-12-03T16:21:27.525Z,13.10
2022-12-03T16:24:35.993Z,13.07
2022-12-03T16:27:44.372Z,12.33
2022-12-03T16:30:52.656Z,13.57
2022-12-03T16:34:02.516Z,12.50
2022-12-03T16:37:11.470Z,14.23
2022-12-03T16:40:28.514Z,13.00
2022-12-03T16:43:38.891Z,13.53
2022-12-03T16:46:47.476Z,14.60
2022-12-03T16:49:57.479Z,12.93
2022-12-03T16:53:06.319Z,13.90
2022-12-03T16:56:15.054Z,13.77
2022-12-03T16:59:23.403Z,13.17
2022-12-03T17:02:31.834Z,13.47
2022-12-03T17:05:42.022Z,13.97
2022-12-03T17:08:50.286Z,13.80
2022-12-03T17:11:59.081Z,13.77
2022-12-03T17:15:08.316Z,13.73
2022-12-03T17:18:16.656Z,12.70
2022-12-03T17:21:41.388Z,13.30
2022-12-03T17:24:49.682Z,13.60
2022-12-03T17:27:58.125Z,14.20
2022-12-03T17:31:06.722Z,12.47
2022-12-03T17:34:15.088Z,13.67
2022-12-03T17:37:25.016Z,13.93
2022-12-03T17:40:33.324Z,12.87
2022-12-03T17:43:41.624Z,13.00
2022-12-03T17:46:50.071Z,12.83
2022-12-03T17:49:58.774Z,13.00
2022-12-03T17:53:10.502Z,14.03
2022-12-03T17:56:18.781Z,14.47
2022-12-03T17:59:27.116Z,14.60
2022-12-03T18:02:35.724Z,12.90
2022-12-03T18:05:43.992Z,17.07
2022-12-03T18:08:53.614Z,13.87
2022-12-03T18:12:02.548Z,13.13
2022-12-03T18:15:11.712Z,14.83
2022-12-03T18:18:19.982Z,14.07
2022-12-03T18:21:28.946Z,14.50
2022-12-03T18:24:38.806Z,15.17
2022-12-03T18:27:47.696Z,13.63
2022-12-03T18:30:56.343Z,15.73
2022-12-03T18:34:05.677Z,14.07
2022-12-03T18:37:15.144Z,13.60
2022-12-03T18:40:27.110Z,12.47
2022-12-03T18:43:35.775Z,11.63
2022-12-03T18:46:59.393Z,14.03
2022-12-03T18:50:09.841Z,13.53
2022-12-03T18:53:20.180Z,13.83
2022-12-03T18:56:29.874Z,12.83
2022-12-03T18:59:38.257Z,13.87
2022-12-03T19:03:02.342Z,12.90
2022-12-03T19:06:18.675Z,13.77
2022-12-03T19:09:27.460Z,14.20
2022-12-03T19:12:37.691Z,17.20
2022-12-03T19:15:46.364Z,15.80
2022-12-03T19:18:54.568Z,16.50
2022-12-03T19:22:02.767Z,13.83
2022-12-03T19:25:11.235Z,15.10
2022-12-03T19:28:20.756Z,17.40
2022-12-03T19:31:33.119Z,15.03
2022-12-03T19:34:41.503Z,15.67
2022-12-03T19:37:51.231Z,15.47
2022-12-03T19:41:01.624Z,15.00
2022-12-03T19:44:15.203Z,14.27
2022-12-03T19:47:24.735Z,14.17
2022-12-03T19:50:32.990Z,20.23
2022-12-03T19:53:42.242Z,21.67
2022-12-03T19:56:50.463Z,17.67
2022-12-03T20:00:01.119Z,13.30
2022-12-03T20:03:09.358Z,13.63
2022-12-03T20:06:23.089Z,14.07
2022-12-03T20:09:31.338Z,14.37
2022-12-03T20:12:39.793Z,14.23
2022-12-03T20:15:49.368Z,12.67
2022-12-03T20:19:00.344Z,12.40
2022-12-03T20:22:08.813Z,13.37
2022-12-03T20:25:17.310Z,12.23
2022-12-03T20:28:26.591Z,12.30
2022-12-03T20:31:36.578Z,11.90
2022-12-03T20:34:45.763Z,12.90
2022-12-03T20:37:54.039Z,11.27
2022-12-03T20:41:03.904Z,13.73
2022-12-03T20:44:13.936Z,13.50
2022-12-03T20:47:24.078Z,14.03
2022-12-03T20:50:32.609Z,13.27
2022-12-03T20:53:42.361Z,13.57
2022-12-03T20:56:54.228Z,12.97
2022-12-03T21:00:03.051Z,12.80
2022-12-03T21:03:13.173Z,12.33
2022-12-03T21:06:23.910Z,13.17
2022-12-03T21:09:32.632Z,13.10
2022-12-03T21:12:40.967Z,12.17
2022-12-03T21:15:49.751Z,13.77
2022-12-03T21:19:00.704Z,13.90
2022-12-03T21:22:08.985Z,14.93
2022-12-03T21:25:19.805Z,14.87
2022-12-03T21:28:28.582Z,15.17
2022-12-03T21:31:38.331Z,13.60
2022-12-03T21:34:48.753Z,15.23
2022-12-03T21:37:57.732Z,13.97
2022-12-03T21:41:07.008Z,15.20
2022-12-03T21:44:15.371Z,13.40
2022-12-03T21:47:23.976Z,14.13
2022-12-03T21:50:33.827Z,13.30
2022-12-03T21:53:43.710Z,13.50
2022-12-03T21:56:52.064Z,13.43
2022-12-03T22:00:00.624Z,13.87
2022-12-03T22:03:09.700Z,13.50
2022-12-03T22:06:20.137Z,12.73
2022-12-03T22:09:33.707Z,12.60
2022-12-03T22:12:42.231Z,11.53
2022-12-03T22:15:53.595Z,13.07
2022-12-03T22:19:04.738Z,11.60
2022-12-03T22:22:18.007Z,11.47
2022-12-03T22:25:27.057Z,11.73
2022-12-03T22:28:36.249Z,11.13
2022-12-03T22:31:45.457Z,11.57
2022-12-03T22:34:54.165Z,12.07
2022-12-03T22:38:04.190Z,12.23
2022-12-03T22:41:14.653Z,11.57
2022-12-03T22:44:23.326Z,11.90
2022-12-03T22:47:31.542Z,11.97
2022-12-03T22:50:44.542Z,12.13
2022-12-03T22:53:58.748Z,12.13
2022-12-03T22:57:06.997Z,11.87
2022-12-03T23:00:28.939Z,11.83
2022-12-03T23:03:38.264Z,11.77
2022-12-03T23:06:47.174Z,9.20
2022-12-03T23:09:58.398Z,10.27
2022-12-03T23:13:09.875Z,10.17
2022-12-03T23:16:22.298Z,10.10
2022-12-03T23:19:30.599Z,10.77
2022-12-03T23:22:38.813Z,10.47
2022-12-03T23:25:58.466Z,10.60
2022-12-03T23:29:08.613Z,10.43
2022-12-03T23:32:17.741Z,10.60
2022-12-03T23:35:26.365Z,9.93
2022-12-03T23:38:34.824Z,8.93
2022-12-03T23:41:44.322Z,9.60
2022-12-03T23:44:52.526Z,9.47
2022-12-03T23:48:00.886Z,9.67
2022-12-03T23:51:12.722Z,10.87
2022-12-03T23:54:20.976Z,8.57
2022-12-03T23:57:30.779Z,9.83
